Airfield :
LOGIN :

Register | Disclaimer

   EN    FR    IT 

 










Legend :    VFR   Marginal VFR   IFR   Intensive IFR   Very Intensive IFR
Visi :
Ceiling :
>= 8 km
>= 3000ft
5 to 8 km
1000 to 3000 ft
1500m to 5 km
500 to 1000 ft
800 to 1500m
200 to 500 ft
< 800m
< 200 ft
Symbols :   Thunderstorms  Fog  Heavy snow  Heavy precipitations  Wind > 20 kt
SIGMETs :     Misc.  Thunderstorms  Icing  Turbulence  Mountain Waves  Volcanic Ashes






- Airport Elevation : -11 ft
- IATA code : AMS


EHAM - Amsterdam Schiphol

CURRENT METAR :
  • 301255Z 20013KT 1600 BR SCT003 BKN004 05/05 Q1020 BECMG SCT004 BKN005

EXPIRED METARs :
  • 301225Z 20013KT 1500 1300NW R18C/1600N R27/1500N R18R/1300N R06/1500N BR FEW002 BKN003 05/04 Q1021 NOSIG
  • 301155Z 19013KT 1600 1300NW R18C/1500N R27/1500N R18R/1300N R06/1500N BR FEW002 BKN003 04/04 Q1021 NOSIG
  • 301125Z 19012KT 1600 1300NW R18C/1700N R27/1600N R18R/1300N R06/1600N BR FEW002 BKN003 04/03 Q1022 BECMG 1400
  • 301055Z 19011KT 1700 1300NW R18C/1700N R27/1600D R18R/1400N R06/1600N BR -DZ FEW002 BKN003 04/03 Q1022 BECMG 1400
  • 301025Z 19009KT 160V220 1800 BR -DZ SCT003 BKN004 03/02 Q1023 TEMPO 1400

TAF TAF EHAM
Valid from the 30 at 12:00 until the 01 at 18:00 UTC


301108Z 3012/0118 20010KT 2000 BR -DZRA SCT002 BKN003
TEMPO 3012/3015 1200 DZRA BKN002
BECMG 3014/3017 25010KT 4000 RADZ SCT004 BKN006
BECMG 3018/3021 33015G25KT 9999 NSW SCT020
PROB40
TEMPO 3021/0110 34020G33KT 6000 SHRA SCT018CB BKN030
BECMG 0115/0118 02010KT



MET'MAP, your aeronautical weather chart ! - Copyright ORBIFLY December 2007 - Disclaimer

ORBIFLY MET'MAP TEAM :

Programming & Development : Alexandra Zaïnal
Concept & original design : Baudouin d'Aumeries
Assistance for programming : Marc-Olivier Méhu
Technical & hardware support : Manuel Goepfert

Contact : metmap@orbifly.com




SOURCES & CREDITS :

   NOAA